Norwegian Getaway — C6ZJ4 — position and weather

sailwx.info

Track history (hours):
 
Tides and Currents Weather Stations Pressure Air Temp Water Temp Dewpoint Dewpoint Depression Visibility Wind Speed Wind Dir Waves Ship Positions

Norwegian Getaway

Last reported at 2020-Apr-02 21:29 UTC. Time now 2020-Apr-02 22:44 UTC.
Position N 29°57' W 090°04'.

Length 326 m; draft 8.8 m.

Type: Ship. MMSI: 311050900.

Date/timePositionNaut miles runAvg speedWind from/ knotsBaromVisibWave heightAir tempDewpointWater temp
2020-Apr-02 21:29N 29°57' W 090°04'0 0.0
2020-Apr-02 20:59N 29°57' W 090°04'0 0.0
2020-Apr-02 19:29N 29°57' W 090°04'0 0.0
2020-Apr-02 18:59N 29°57' W 090°04'0 0.0
2020-Apr-02 18:29N 29°57' W 090°04'0 0.0
2020-Apr-02 15:29N 29°57' W 090°04'0 0.0
2020-Apr-02 13:29N 29°57' W 090°04'0 0.0
2020-Apr-02 11:59N 29°57' W 090°04'0 0.0
2020-Apr-02 10:59N 29°57' W 090°04'0 0.0
2020-Apr-02 10:29N 29°57' W 090°04'0 0.0
2020-Apr-02 09:26N 29°57' W 090°04'0 0.0
2020-Apr-02 07:53N 29°57' W 090°04'0 0.0
2020-Apr-02 07:29N 29°57' W 090°04'0 0.0
2020-Apr-02 05:23N 29°57' W 090°04'0 0.0
2020-Apr-02 02:29N 29°57' W 090°04'0 0.0
2020-Apr-02 01:59N 29°57' W 090°04'0 0.0
2020-Apr-01 22:59N 29°57' W 090°04'0 0.0
2020-Apr-01 22:29N 29°57' W 090°04'0 0.0
2020-Apr-01 21:22N 29°57' W 090°04'0 0.0
2020-Apr-01 20:58N 29°57' W 090°04'0 0.0
2020-Apr-01 18:28N 29°57' W 090°04'0 0.0
2020-Apr-01 17:55N 29°57' W 090°04'0 0.0
2020-Apr-01 16:58N 29°57' W 090°04'0 0.0
2020-Apr-01 16:28N 29°57' W 090°04'0 0.0
2020-Apr-01 10:28N 29°57' W 090°04'0 0.0
2020-Apr-01 07:55N 29°57' W 090°04'0 0.0
2020-Apr-01 07:22N 29°57' W 090°04'0 0.0
2020-Mar-31 21:59N 29°57' W 090°04'0 0.0
2020-Mar-31 20:59N 29°57' W 090°04'0 0.0
2020-Mar-31 20:29N 29°57' W 090°04'0 0.0
2020-Mar-31 17:59N 29°57' W 090°04'0 0.0
2020-Mar-31 16:29N 29°57' W 090°04'0 0.0
2020-Mar-31 15:53N 29°57' W 090°04'0 0.0
2020-Mar-31 11:29N 29°57' W 090°04'0 0.0
2020-Mar-31 10:53N 29°57' W 090°04'0 0.0
2020-Mar-31 09:56N 29°57' W 090°04'0 0.0
2020-Mar-31 09:29N 29°57' W 090°04'0 0.0
2020-Mar-31 08:23N 29°57' W 090°04'0 0.0
2020-Mar-31 07:29N 29°57' W 090°04'0 0.0
2020-Mar-31 06:26N 29°57' W 090°04'0 0.0
2020-Mar-31 04:59N 29°57' W 090°04'0 0.0
2020-Mar-31 04:29N 29°57' W 090°04'0 0.0
2020-Mar-31 03:29N 29°57' W 090°04'0 0.0
2020-Mar-31 00:59N 29°57' W 090°04'0 0.0
2020-Mar-30 23:26N 29°57' W 090°04'0 0.0
2020-Mar-30 21:23N 29°57' W 090°04'0 0.0
2020-Mar-30 20:56N 29°57' W 090°04'0 0.0
2020-Mar-30 17:29N 29°57' W 090°04'0 0.0
2020-Mar-30 16:26N 29°57' W 090°04'0 0.0
2020-Mar-30 14:29N 29°57' W 090°04'0 0.0
2020-Mar-30 13:59N 29°57' W 090°04'0 0.0
2020-Mar-30 11:59N 29°57' W 090°04'0 0.0
2020-Mar-30 10:29N 29°57' W 090°04'0 0.0
2020-Mar-30 08:29N 29°57' W 090°04'0 0.0
2020-Mar-30 07:59N 29°57' W 090°04'0 0.0
2020-Mar-30 05:56N 29°57' W 090°04'0 0.0
2020-Mar-30 05:26N 29°57' W 090°04'0 0.0
2020-Mar-30 04:29N 29°57' W 090°04'0 0.0
2020-Mar-30 01:59N 29°57' W 090°04'0 0.0
2020-Mar-30 01:26N 29°57' W 090°04'0 0.0
2020-Mar-29 22:29N 29°57' W 090°04'0 0.0
2020-Mar-29 21:26N 29°57' W 090°04'0 0.0
2020-Mar-29 20:29N 29°57' W 090°04'0 0.0
2020-Mar-29 19:18N 29°57' W 090°04'0 0.0
2020-Mar-29 19:00N 29°57' W 090°04'0 0.0
2020-Mar-29 17:58N 29°57' W 090°04'0 0.0
2020-Mar-29 17:29N 29°57' W 090°04'0 0.0
2020-Mar-29 16:28N 29°57' W 090°04'0 0.0
2020-Mar-29 14:23N 29°57' W 090°04'0 0.0
2020-Mar-29 13:30N 29°57' W 090°04'0 0.0
2020-Mar-29 13:00N 29°57' W 090°04'0 0.0
2020-Mar-29 12:30N 29°57' W 090°04'0 0.0
2020-Mar-29 11:30N 29°57' W 090°04'7 2.9
2020-Mar-29 09:00N 29°51' W 089°59'17 0.4
2020-Mar-27 16:06N 29°36' W 089°50'216.3
2020-Mar-27 15:59N 29°36' W 089°52'1313.7
2020-Mar-27 15:00N 29°47' W 090°01'11 7.1
2020-Mar-27 13:30N 29°57' W 090°02'2 1.6
2020-Mar-27 12:30N 29°57' W 090°04'0 0.0
2020-Mar-27 12:00N 29°57' W 090°04'0 0.0
2020-Mar-27 10:30N 29°57' W 090°04'0 0.0
2020-Mar-27 10:00N 29°57' W 090°04'0 0.0
2020-Mar-27 08:00N 29°57' W 090°04'0 0.0
2020-Mar-27 05:57N 29°57' W 090°04'0 0.0
2020-Mar-27 03:30N 29°57' W 090°04'0 0.0
2020-Mar-26 21:30N 29°57' W 090°04'0 0.0
2020-Mar-26 21:00N 29°57' W 090°04'0 0.0
2020-Mar-26 18:00N 29°57' W 090°04'0 0.0
2020-Mar-26 17:30N 29°57' W 090°04'0 0.0
2020-Mar-26 15:00N 29°57' W 090°04'0 0.0
2020-Mar-26 13:30N 29°57' W 090°04'0 0.0
2020-Mar-26 11:00N 29°57' W 090°04'0 0.0
2020-Mar-26 10:00N 29°57' W 090°04'0 0.0
2020-Mar-26 09:30N 29°57' W 090°04'0 0.0
2020-Mar-26 08:00N 29°57' W 090°04'0 0.0
2020-Mar-26 07:30N 29°57' W 090°04'0 0.0
2020-Mar-26 07:00N 29°57' W 090°04'0 0.0
2020-Mar-26 06:30N 29°57' W 090°04'0 0.0
2020-Mar-26 06:00N 29°57' W 090°04'0 0.0
2020-Mar-26 05:30N 29°57' W 090°04'0 0.0
2020-Mar-26 04:30N 29°57' W 090°04'0 0.0
2020-Mar-26 03:30N 29°57' W 090°04'0 0.0
2020-Mar-25 23:00N 29°57' W 090°04'0 0.0
2020-Mar-25 20:30N 29°57' W 090°04'0 0.0
2020-Mar-25 15:30N 29°57' W 090°04'0 0.0
2020-Mar-25 13:30N 29°57' W 090°04'0 0.0
2020-Mar-25 13:00N 29°57' W 090°04'0 0.0
2020-Mar-25 10:30N 29°57' W 090°04'0 0.0
2020-Mar-25 08:30N 29°57' W 090°04'0 0.0
2020-Mar-25 08:00N 29°57' W 090°04'0 0.0
2020-Mar-25 05:30N 29°57' W 090°04'0 0.0
2020-Mar-25 01:27N 29°57' W 090°04'0 0.0
2020-Mar-25 01:00N 29°57' W 090°04'0 0.0
2020-Mar-25 00:30N 29°57' W 090°04'0 0.0
2020-Mar-24 23:00N 29°57' W 090°04'0 0.0
2020-Mar-24 21:30N 29°57' W 090°04'0 0.0
2020-Mar-24 20:00N 29°57' W 090°04'0 0.0
2020-Mar-24 19:30N 29°57' W 090°04'0 0.0
2020-Mar-24 19:00N 29°57' W 090°04'0 0.0
2020-Mar-24 17:30N 29°57' W 090°04'0 0.0
2020-Mar-24 17:00N 29°57' W 090°04'0 0.0
2020-Mar-24 15:30N 29°57' W 090°04'0 0.0
2020-Mar-24 14:00N 29°57' W 090°04'0 0.0
2020-Mar-24 13:30N 29°57' W 090°04'0 0.0
2020-Mar-24 12:57N 29°57' W 090°04'0 0.0
2020-Mar-24 09:57N 29°57' W 090°04'0 0.0
2020-Mar-24 08:30N 29°57' W 090°04'0 0.0
2020-Mar-24 08:00N 29°57' W 090°04'0 0.0
2020-Mar-24 07:30N 29°57' W 090°04'0 0.0
2020-Mar-24 05:30N 29°57' W 090°04'0 0.0
2020-Mar-24 04:30N 29°57' W 090°04'0 0.0
2020-Mar-24 01:30N 29°57' W 090°04'0 0.0
2020-Mar-24 00:30N 29°57' W 090°04'0 0.0
2020-Mar-23 23:30N 29°57' W 090°04'  
Track history (hours):
 
Tides and Currents Weather Stations Pressure Air Temp Water Temp Dewpoint Dewpoint Depression Visibility Wind Speed Wind Dir Waves Ship Positions

Norwegian Getaway

Last reported at 2020-Apr-02 21:29 UTC. Time now 2020-Apr-02 22:44 UTC.
Position N 29°57' W 090°04'.

Length 326 m; draft 8.8 m.

Type: Ship. MMSI: 311050900.

Date/timePositionNaut miles runAvg speedWind from/ knotsBaromVisibWave heightAir tempDewpointWater temp
2020-Apr-02 21:29N 29°57' W 090°04'0 0.0
2020-Apr-02 20:59N 29°57' W 090°04'0 0.0
2020-Apr-02 19:29N 29°57' W 090°04'0 0.0
2020-Apr-02 18:59N 29°57' W 090°04'0 0.0
2020-Apr-02 18:29N 29°57' W 090°04'0 0.0
2020-Apr-02 15:29N 29°57' W 090°04'0 0.0
2020-Apr-02 13:29N 29°57' W 090°04'0 0.0
2020-Apr-02 11:59N 29°57' W 090°04'0 0.0
2020-Apr-02 10:59N 29°57' W 090°04'0 0.0
2020-Apr-02 10:29N 29°57' W 090°04'0 0.0
2020-Apr-02 09:26N 29°57' W 090°04'0 0.0
2020-Apr-02 07:53N 29°57' W 090°04'0 0.0
2020-Apr-02 07:29N 29°57' W 090°04'0 0.0
2020-Apr-02 05:23N 29°57' W 090°04'0 0.0
2020-Apr-02 02:29N 29°57' W 090°04'0 0.0
2020-Apr-02 01:59N 29°57' W 090°04'0 0.0
2020-Apr-01 22:59N 29°57' W 090°04'0 0.0
2020-Apr-01 22:29N 29°57' W 090°04'0 0.0
2020-Apr-01 21:22N 29°57' W 090°04'0 0.0
2020-Apr-01 20:58N 29°57' W 090°04'0 0.0
2020-Apr-01 18:28N 29°57' W 090°04'0 0.0
2020-Apr-01 17:55N 29°57' W 090°04'0 0.0
2020-Apr-01 16:58N 29°57' W 090°04'0 0.0
2020-Apr-01 16:28N 29°57' W 090°04'0 0.0
2020-Apr-01 10:28N 29°57' W 090°04'0 0.0
2020-Apr-01 07:55N 29°57' W 090°04'0 0.0
2020-Apr-01 07:22N 29°57' W 090°04'0 0.0
2020-Mar-31 21:59N 29°57' W 090°04'0 0.0
2020-Mar-31 20:59N 29°57' W 090°04'0 0.0
2020-Mar-31 20:29N 29°57' W 090°04'0 0.0
2020-Mar-31 17:59N 29°57' W 090°04'0 0.0
2020-Mar-31 16:29N 29°57' W 090°04'0 0.0
2020-Mar-31 15:53N 29°57' W 090°04'0 0.0
2020-Mar-31 11:29N 29°57' W 090°04'0 0.0
2020-Mar-31 10:53N 29°57' W 090°04'0 0.0
2020-Mar-31 09:56N 29°57' W 090°04'0 0.0
2020-Mar-31 09:29N 29°57' W 090°04'0 0.0
2020-Mar-31 08:23N 29°57' W 090°04'0 0.0
2020-Mar-31 07:29N 29°57' W 090°04'0 0.0
2020-Mar-31 06:26N 29°57' W 090°04'0 0.0
2020-Mar-31 04:59N 29°57' W 090°04'0 0.0
2020-Mar-31 04:29N 29°57' W 090°04'0 0.0
2020-Mar-31 03:29N 29°57' W 090°04'0 0.0
2020-Mar-31 00:59N 29°57' W 090°04'0 0.0
2020-Mar-30 23:26N 29°57' W 090°04'0 0.0
2020-Mar-30 21:23N 29°57' W 090°04'0 0.0
2020-Mar-30 20:56N 29°57' W 090°04'0 0.0
2020-Mar-30 17:29N 29°57' W 090°04'0 0.0
2020-Mar-30 16:26N 29°57' W 090°04'0 0.0
2020-Mar-30 14:29N 29°57' W 090°04'0 0.0
2020-Mar-30 13:59N 29°57' W 090°04'0 0.0
2020-Mar-30 11:59N 29°57' W 090°04'0 0.0
2020-Mar-30 10:29N 29°57' W 090°04'0 0.0
2020-Mar-30 08:29N 29°57' W 090°04'0 0.0
2020-Mar-30 07:59N 29°57' W 090°04'0 0.0
2020-Mar-30 05:56N 29°57' W 090°04'0 0.0
2020-Mar-30 05:26N 29°57' W 090°04'0 0.0
2020-Mar-30 04:29N 29°57' W 090°04'0 0.0
2020-Mar-30 01:59N 29°57' W 090°04'0 0.0
2020-Mar-30 01:26N 29°57' W 090°04'0 0.0
2020-Mar-29 22:29N 29°57' W 090°04'0 0.0
2020-Mar-29 21:26N 29°57' W 090°04'0 0.0
2020-Mar-29 20:29N 29°57' W 090°04'0 0.0
2020-Mar-29 19:18N 29°57' W 090°04'0 0.0
2020-Mar-29 19:00N 29°57' W 090°04'0 0.0
2020-Mar-29 17:58N 29°57' W 090°04'0 0.0
2020-Mar-29 17:29N 29°57' W 090°04'0 0.0
2020-Mar-29 16:28N 29°57' W 090°04'0 0.0
2020-Mar-29 14:23N 29°57' W 090°04'0 0.0
2020-Mar-29 13:30N 29°57' W 090°04'0 0.0
2020-Mar-29 13:00N 29°57' W 090°04'0 0.0
2020-Mar-29 12:30N 29°57' W 090°04'0 0.0
2020-Mar-29 11:30N 29°57' W 090°04'7 2.9
2020-Mar-29 09:00N 29°51' W 089°59'17 0.4
2020-Mar-27 16:06N 29°36' W 089°50'216.3
2020-Mar-27 15:59N 29°36' W 089°52'1313.7
2020-Mar-27 15:00N 29°47' W 090°01'11 7.1
2020-Mar-27 13:30N 29°57' W 090°02'2 1.6
2020-Mar-27 12:30N 29°57' W 090°04'0 0.0
2020-Mar-27 12:00N 29°57' W 090°04'0 0.0
2020-Mar-27 10:30N 29°57' W 090°04'0 0.0
2020-Mar-27 10:00N 29°57' W 090°04'0 0.0
2020-Mar-27 08:00N 29°57' W 090°04'0 0.0
2020-Mar-27 05:57N 29°57' W 090°04'0 0.0
2020-Mar-27 03:30N 29°57' W 090°04'0 0.0
2020-Mar-26 21:30N 29°57' W 090°04'0 0.0
2020-Mar-26 21:00N 29°57' W 090°04'0 0.0
2020-Mar-26 18:00N 29°57' W 090°04'0 0.0
2020-Mar-26 17:30N 29°57' W 090°04'0 0.0
2020-Mar-26 15:00N 29°57' W 090°04'0 0.0
2020-Mar-26 13:30N 29°57' W 090°04'0 0.0
2020-Mar-26 11:00N 29°57' W 090°04'0 0.0
2020-Mar-26 10:00N 29°57' W 090°04'0 0.0
2020-Mar-26 09:30N 29°57' W 090°04'0 0.0
2020-Mar-26 08:00N 29°57' W 090°04'0 0.0
2020-Mar-26 07:30N 29°57' W 090°04'0 0.0
2020-Mar-26 07:00N 29°57' W 090°04'0 0.0
2020-Mar-26 06:30N 29°57' W 090°04'0 0.0
2020-Mar-26 06:00N 29°57' W 090°04'0 0.0
2020-Mar-26 05:30N 29°57' W 090°04'0 0.0
2020-Mar-26 04:30N 29°57' W 090°04'0 0.0
2020-Mar-26 03:30N 29°57' W 090°04'0 0.0
2020-Mar-25 23:00N 29°57' W 090°04'0 0.0
2020-Mar-25 20:30N 29°57' W 090°04'0 0.0
2020-Mar-25 15:30N 29°57' W 090°04'0 0.0
2020-Mar-25 13:30N 29°57' W 090°04'0 0.0
2020-Mar-25 13:00N 29°57' W 090°04'0 0.0
2020-Mar-25 10:30N 29°57' W 090°04'0 0.0
2020-Mar-25 08:30N 29°57' W 090°04'0 0.0
2020-Mar-25 08:00N 29°57' W 090°04'0 0.0
2020-Mar-25 05:30N 29°57' W 090°04'0 0.0
2020-Mar-25 01:27N 29°57' W 090°04'0 0.0
2020-Mar-25 01:00N 29°57' W 090°04'0 0.0
2020-Mar-25 00:30N 29°57' W 090°04'0 0.0
2020-Mar-24 23:00N 29°57' W 090°04'0 0.0
2020-Mar-24 21:30N 29°57' W 090°04'0 0.0
2020-Mar-24 20:00N 29°57' W 090°04'0 0.0
2020-Mar-24 19:30N 29°57' W 090°04'0 0.0
2020-Mar-24 19:00N 29°57' W 090°04'0 0.0
2020-Mar-24 17:30N 29°57' W 090°04'0 0.0
2020-Mar-24 17:00N 29°57' W 090°04'0 0.0
2020-Mar-24 15:30N 29°57' W 090°04'0 0.0
2020-Mar-24 14:00N 29°57' W 090°04'0 0.0
2020-Mar-24 13:30N 29°57' W 090°04'0 0.0
2020-Mar-24 12:57N 29°57' W 090°04'0 0.0
2020-Mar-24 09:57N 29°57' W 090°04'0 0.0
2020-Mar-24 08:30N 29°57' W 090°04'0 0.0
2020-Mar-24 08:00N 29°57' W 090°04'0 0.0
2020-Mar-24 07:30N 29°57' W 090°04'0 0.0
2020-Mar-24 05:30N 29°57' W 090°04'0 0.0
2020-Mar-24 04:30N 29°57' W 090°04'0 0.0
2020-Mar-24 01:30N 29°57' W 090°04'0 0.0
2020-Mar-24 00:30N 29°57' W 090°04'0 0.0
2020-Mar-23 23:30N 29°57' W 090°04'  

Dump ship's entire track history